createdAt,value
2023-01-02T08:54:27.199Z,7.63
2023-01-02T08:56:53.791Z,8.00
2023-01-02T08:59:23.598Z,7.93
2023-01-02T09:01:50.464Z,8.00
2023-01-02T09:04:17.930Z,8.20
2023-01-02T09:06:44.794Z,8.67
2023-01-02T09:09:13.215Z,7.97
2023-01-02T09:11:49.039Z,7.47
2023-01-02T09:14:16.051Z,7.93
2023-01-02T09:16:42.619Z,8.10
2023-01-02T09:19:12.500Z,7.57
2023-01-02T09:21:39.199Z,8.03
2023-01-02T09:24:06.791Z,7.40
2023-01-02T09:26:33.373Z,7.57
2023-01-02T09:28:59.941Z,8.57
2023-01-02T09:31:26.619Z,7.73
2023-01-02T09:33:54.795Z,7.57
2023-01-02T09:36:22.518Z,8.50
2023-01-02T09:38:56.067Z,7.60
2023-01-02T09:41:33.290Z,7.70
2023-01-02T09:44:22.531Z,8.38
2023-01-02T09:47:04.500Z,8.13
2023-01-02T09:49:34.417Z,8.03
2023-01-02T09:52:01.096Z,7.73
2023-01-02T09:54:32.652Z,8.17
2023-01-02T09:57:15.773Z,8.27
2023-01-02T09:59:48.323Z,8.60
2023-01-02T10:02:42.903Z,8.40
2023-01-02T10:05:31.804Z,8.93
2023-01-02T10:08:26.408Z,8.67
2023-01-02T10:11:10.076Z,9.23
2023-01-02T10:16:40.696Z,9.10
2023-01-02T10:19:15.002Z,9.47
2023-01-02T10:21:42.767Z,10.17
2023-01-02T10:24:16.660Z,9.37
2023-01-02T10:26:47.861Z,9.60
2023-01-02T10:29:30.744Z,9.07
2023-01-02T10:32:15.304Z,8.67
2023-01-02T10:35:10.353Z,9.10
2023-01-02T10:37:37.053Z,8.20
2023-01-02T10:40:04.638Z,8.93
2023-01-02T10:42:32.967Z,8.80
2023-01-02T10:44:59.628Z,8.73
2023-01-02T10:47:35.423Z,8.00
2023-01-02T10:50:05.078Z,8.30
2023-01-02T10:52:45.959Z,8.43
2023-01-02T10:55:13.081Z,9.00
2023-01-02T10:57:44.862Z,8.50
2023-01-02T11:00:31.910Z,8.53
2023-01-02T11:03:01.516Z,9.23
2023-01-02T11:05:30.164Z,8.80
2023-01-02T11:07:56.665Z,9.23
2023-01-02T11:10:30.625Z,9.30
2023-01-02T11:13:02.577Z,9.30
2023-01-02T11:15:34.532Z,8.20
2023-01-02T11:18:02.751Z,8.87
2023-01-02T11:20:34.719Z,8.90
2023-01-02T11:23:03.151Z,7.43
2023-01-02T11:25:36.845Z,8.03
2023-01-02T11:28:03.796Z,7.90
2023-01-02T11:31:01.559Z,8.13
2023-01-02T11:33:30.642Z,8.40
2023-01-02T11:36:14.438Z,8.00
2023-01-02T11:38:50.687Z,7.93
2023-01-02T11:41:53.378Z,7.87
2023-01-02T11:44:33.285Z,7.97
2023-01-02T11:47:00.911Z,8.80
2023-01-02T11:49:33.210Z,8.17
2023-01-02T11:52:02.834Z,7.90
2023-01-02T11:54:40.164Z,8.10
2023-01-02T11:57:18.439Z,8.23
2023-01-02T11:59:47.945Z,7.80
2023-01-02T12:02:51.842Z,8.50
2023-01-02T12:05:26.158Z,7.90
2023-01-02T12:08:01.372Z,8.40
2023-01-02T12:10:52.415Z,8.47
2023-01-02T12:13:42.708Z,8.97
2023-01-02T12:16:44.908Z,8.60
2023-01-02T12:19:37.071Z,8.73
2023-01-02T12:22:03.757Z,8.53
2023-01-02T12:24:45.716Z,8.20
2023-01-02T12:27:22.723Z,8.40
2023-01-02T12:30:20.576Z,8.33
2023-01-02T12:33:02.009Z,8.57
2023-01-02T12:36:02.591Z,9.33
2023-01-02T12:38:34.956Z,8.50
2023-01-02T12:41:27.822Z,8.13
2023-01-02T12:44:08.683Z,7.90
2023-01-02T12:46:47.502Z,7.80
2023-01-02T12:49:22.261Z,7.70
2023-01-02T12:51:58.504Z,7.67
2023-01-02T12:54:33.316Z,8.27
2023-01-02T12:57:09.493Z,7.00
2023-01-02T12:59:45.089Z,6.93
2023-01-02T13:02:11.841Z,7.40
2023-01-02T13:04:42.722Z,7.40
2023-01-02T13:07:15.091Z,7.10
2023-01-02T13:09:44.305Z,7.13
2023-01-02T13:12:10.899Z,6.73
2023-01-02T13:14:59.206Z,6.80
2023-01-02T13:17:49.774Z,6.90
2023-01-02T13:20:28.163Z,6.50
2023-01-02T13:23:37.205Z,6.70
2023-01-02T13:26:07.896Z,6.60
2023-01-02T13:29:06.928Z,6.43
2023-01-02T13:31:46.650Z,6.07
2023-01-02T13:34:31.482Z,6.10
2023-01-02T13:37:05.804Z,6.27
2023-01-02T13:39:40.981Z,6.50
2023-01-02T13:42:29.473Z,6.87
2023-01-02T13:44:58.273Z,6.67
2023-01-02T13:47:34.967Z,6.17
2023-01-02T13:50:09.070Z,5.90
2023-01-02T13:52:35.944Z,6.40
2023-01-02T13:55:28.497Z,7.03
2023-01-02T13:58:14.035Z,7.90
2023-01-02T14:00:53.516Z,6.80
2023-01-02T14:03:21.984Z,7.20
2023-01-02T14:05:58.687Z,6.80
2023-01-02T14:08:32.433Z,6.50
2023-01-02T14:11:10.493Z,6.20
2023-01-02T14:13:52.224Z,6.83
2023-01-02T14:16:43.269Z,6.53
2023-01-02T14:19:13.081Z,6.87
2023-01-02T14:21:44.202Z,6.83
2023-01-02T14:24:16.767Z,7.00
2023-01-02T14:26:52.608Z,6.63
2023-01-02T14:29:21.098Z,6.60
2023-01-02T14:31:47.835Z,6.37
2023-01-02T14:34:23.658Z,7.10
2023-01-02T14:36:50.754Z,6.77
2023-01-02T14:39:26.266Z,6.70
2023-01-02T14:42:11.573Z,6.50
2023-01-02T14:44:45.134Z,7.03
2023-01-02T14:47:17.073Z,6.07
2023-01-02T14:49:44.292Z,7.10
2023-01-02T14:52:16.023Z,7.00
2023-01-02T14:54:48.999Z,6.67
2023-01-02T14:57:29.793Z,7.43
2023-01-02T14:59:57.085Z,7.33
2023-01-02T15:02:31.073Z,7.00
2023-01-02T15:05:06.362Z,7.27
2023-01-02T15:07:36.996Z,7.00
2023-01-02T15:10:08.218Z,7.20
2023-01-02T15:13:02.016Z,7.77
2023-01-02T15:15:29.767Z,8.00
2023-01-02T15:18:01.678Z,8.17
2023-01-02T15:20:28.731Z,6.80
2023-01-02T15:22:56.430Z,7.57
2023-01-02T15:25:37.876Z,8.20
2023-01-02T15:28:05.742Z,8.20
2023-01-02T15:30:38.387Z,8.60
2023-01-02T15:33:06.247Z,8.17
2023-01-02T15:35:35.959Z,8.57
2023-01-02T15:38:05.223Z,8.73
2023-01-02T15:40:33.965Z,8.20
2023-01-02T15:43:22.947Z,8.80
2023-01-02T15:45:51.990Z,9.13
2023-01-02T15:48:21.853Z,8.27
2023-01-02T15:50:50.796Z,9.20
2023-01-02T15:53:23.887Z,8.40
2023-01-02T15:55:50.684Z,8.80
2023-01-02T15:58:17.189Z,9.07
2023-01-02T16:00:44.918Z,8.67
2023-01-02T16:03:16.918Z,9.37
2023-01-02T16:06:06.997Z,8.47
2023-01-02T16:08:37.874Z,8.80
2023-01-02T16:11:05.202Z,9.37
2023-01-02T16:13:52.786Z,8.93
2023-01-02T16:16:20.819Z,8.87
2023-01-02T16:18:51.706Z,9.03
2023-01-02T16:21:18.849Z,9.77
2023-01-02T16:23:50.248Z,8.47
2023-01-02T16:26:19.154Z,9.13
2023-01-02T16:28:45.829Z,9.37
2023-01-02T16:31:21.372Z,10.07
2023-01-02T16:33:48.317Z,9.77
2023-01-02T16:36:14.815Z,9.67
2023-01-02T16:38:50.422Z,9.63
2023-01-02T16:41:38.367Z,9.50
2023-01-02T16:44:12.608Z,10.03
2023-01-02T16:46:39.813Z,9.77
2023-01-02T16:49:07.470Z,9.27
2023-01-02T16:51:34.499Z,9.93
2023-01-02T16:54:01.087Z,8.87
2023-01-02T16:56:27.847Z,10.17
2023-01-02T16:58:54.477Z,10.83
2023-01-02T17:01:22.289Z,10.10
2023-01-02T17:03:48.980Z,10.47
2023-01-02T17:06:20.293Z,11.13
2023-01-02T17:08:48.123Z,11.20
2023-01-02T17:11:16.197Z,9.87
2023-01-02T17:13:42.863Z,9.33
2023-01-02T17:16:09.698Z,10.13
2023-01-02T17:18:36.821Z,9.70
2023-01-02T17:21:03.802Z,9.60
2023-01-02T17:23:30.511Z,9.87
2023-01-02T17:25:57.095Z,9.70
2023-01-02T17:28:24.082Z,9.97
2023-01-02T17:30:51.379Z,9.63
2023-01-02T17:33:18.665Z,10.30
2023-01-02T17:35:46.301Z,11.20
2023-01-02T17:38:13.216Z,8.50
2023-01-02T17:40:39.908Z,8.97
2023-01-02T17:43:06.503Z,10.10
2023-01-02T17:45:33.156Z,9.47
2023-01-02T17:48:05.476Z,10.50
2023-01-02T17:50:34.358Z,10.23
2023-01-02T17:53:00.872Z,9.90
2023-01-02T17:55:27.444Z,10.17
2023-01-02T17:57:54.237Z,10.10
2023-01-02T18:00:23.507Z,10.00
2023-01-02T18:02:52.151Z,9.93
2023-01-02T18:05:19.311Z,10.03
2023-01-02T18:07:46.141Z,10.90
2023-01-02T18:10:17.577Z,9.90
2023-01-02T18:12:46.634Z,10.07
2023-01-02T18:15:15.348Z,10.37
2023-01-02T18:17:42.044Z,10.43
2023-01-02T18:20:13.597Z,9.67
2023-01-02T18:22:47.933Z,9.60
2023-01-02T18:25:29.986Z,10.90
2023-01-02T18:28:00.837Z,10.23
2023-01-02T18:30:27.754Z,10.60
2023-01-02T18:33:12.918Z,10.93
2023-01-02T18:36:09.559Z,10.80
2023-01-02T18:38:37.881Z,10.30
2023-01-02T18:41:25.247Z,10.70
2023-01-02T18:44:04.836Z,11.83
2023-01-02T18:47:03.808Z,12.13
2023-01-02T18:49:28.875Z,11.97
2023-01-02T18:52:10.367Z,11.40
2023-01-02T18:54:41.353Z,12.07
2023-01-02T18:57:16.111Z,12.07
2023-01-02T18:59:44.390Z,11.60
2023-01-02T19:02:40.109Z,12.17
2023-01-02T19:05:31.320Z,11.53
2023-01-02T19:08:13.825Z,11.93
2023-01-02T19:10:43.065Z,11.90
2023-01-02T19:13:20.869Z,12.03
2023-01-02T19:16:00.539Z,11.27
2023-01-02T19:18:43.267Z,10.50
2023-01-02T19:21:10.234Z,11.77
2023-01-02T19:23:56.782Z,11.97
2023-01-02T19:26:39.459Z,10.97
2023-01-02T19:29:11.728Z,11.20
2023-01-02T19:31:50.651Z,11.70
2023-01-02T19:34:23.365Z,11.60
2023-01-02T19:36:53.396Z,11.83
2023-01-02T19:39:37.896Z,11.87
2023-01-02T19:42:20.813Z,11.83
2023-01-02T19:44:57.360Z,11.07
2023-01-02T19:47:27.204Z,10.87
2023-01-02T19:49:54.224Z,11.10
2023-01-02T19:52:22.057Z,11.40
2023-01-02T19:54:49.332Z,10.73
2023-01-02T19:57:20.622Z,10.47
2023-01-02T19:59:49.374Z,10.57
2023-01-02T20:02:20.927Z,10.37
2023-01-02T20:04:49.751Z,10.97
2023-01-02T20:07:16.890Z,11.00
2023-01-02T20:09:43.936Z,11.00
2023-01-02T20:12:29.557Z,10.30
2023-01-02T20:14:57.200Z,9.43
2023-01-02T20:17:24.042Z,9.87
2023-01-02T20:19:53.510Z,10.57
2023-01-02T20:22:21.455Z,9.43
2023-01-02T20:24:48.165Z,10.37
2023-01-02T20:27:15.822Z,9.97
2023-01-02T20:29:42.630Z,10.00
2023-01-02T20:32:09.383Z,9.30
2023-01-02T20:34:35.964Z,9.13
2023-01-02T20:37:02.767Z,10.47
2023-01-02T20:39:29.467Z,9.77
2023-01-02T20:42:13.013Z,10.73
2023-01-02T20:44:40.417Z,10.70
2023-01-02T20:47:07.312Z,10.47
2023-01-02T20:49:34.072Z,10.03
2023-01-02T20:52:00.721Z,10.27
2023-01-02T20:54:27.912Z,10.70
2023-01-02T20:56:54.494Z,10.03
2023-01-02T20:59:21.600Z,10.20
2023-01-02T21:01:48.517Z,9.93
2023-01-02T21:04:20.438Z,10.57
2023-01-02T21:06:51.654Z,9.50
2023-01-02T21:09:18.642Z,9.50
2023-01-02T21:11:45.450Z,9.93
2023-01-02T21:14:12.237Z,10.07
2023-01-02T21:16:39.072Z,10.47
2023-01-02T21:19:05.709Z,9.73
2023-01-02T21:21:32.381Z,10.23
2023-01-02T21:23:58.961Z,10.27
2023-01-02T21:26:25.492Z,9.97
2023-01-02T21:28:52.224Z,9.80
2023-01-02T21:31:20.934Z,10.80
2023-01-02T21:33:48.041Z,11.07
2023-01-02T21:36:15.835Z,10.23
2023-01-02T21:38:43.566Z,10.37
2023-01-02T21:41:29.336Z,9.60
2023-01-02T21:43:56.001Z,10.53
2023-01-02T21:46:22.802Z,11.03
2023-01-02T21:48:49.474Z,10.97
2023-01-02T21:51:16.024Z,10.47
2023-01-02T21:53:42.516Z,10.77
2023-01-02T21:56:09.112Z,11.30
2023-01-02T21:58:36.044Z,9.93
2023-01-02T22:01:02.605Z,9.77
2023-01-02T22:03:29.309Z,9.90
2023-01-02T22:05:56.040Z,10.77
2023-01-02T22:08:22.522Z,9.93
2023-01-02T22:10:49.627Z,11.00
2023-01-02T22:13:16.583Z,11.17
2023-01-02T22:15:45.571Z,10.13
2023-01-02T22:18:12.898Z,10.03
2023-01-02T22:20:39.957Z,10.30
2023-01-02T22:23:06.572Z,10.47
2023-01-02T22:25:33.291Z,10.83
2023-01-02T22:28:00.056Z,10.47
2023-01-02T22:30:33.929Z,9.83
2023-01-02T22:33:01.413Z,10.00
2023-01-02T22:35:27.987Z,10.83
2023-01-02T22:37:54.576Z,10.37
2023-01-02T22:40:21.270Z,10.43
2023-01-02T22:43:03.214Z,10.33
2023-01-02T22:45:51.734Z,11.27
2023-01-02T22:48:27.086Z,10.33
2023-01-02T22:50:55.512Z,10.50
2023-01-02T22:53:30.391Z,10.10
2023-01-02T22:55:57.037Z,10.83
2023-01-02T22:58:24.130Z,10.27
2023-01-02T23:01:01.647Z,9.77
2023-01-02T23:03:30.160Z,10.40
2023-01-02T23:05:57.623Z,10.40
2023-01-02T23:08:24.352Z,10.23
2023-01-02T23:10:50.935Z,10.43
2023-01-02T23:13:17.498Z,10.73
2023-01-02T23:16:02.537Z,11.13
2023-01-02T23:18:53.183Z,10.57
2023-01-02T23:21:24.119Z,9.77
2023-01-02T23:23:51.584Z,10.90
2023-01-02T23:26:19.126Z,10.40
2023-01-02T23:31:33.228Z,11.20
2023-01-02T23:34:00.040Z,9.57
2023-01-02T23:36:26.679Z,11.37
2023-01-02T23:38:53.218Z,9.77
2023-01-02T23:41:20.351Z,10.53
2023-01-02T23:43:46.967Z,10.37
2023-01-02T23:46:13.633Z,9.93
2023-01-02T23:48:40.283Z,10.00
2023-01-02T23:51:06.933Z,9.80
2023-01-02T23:53:33.621Z,9.53
2023-01-02T23:56:00.452Z,9.80
2023-01-02T23:58:27.003Z,9.87
